^^
Meteo Knjazevac Station Historical Data
Daily Summary for August 11, 2022 Units:  English    Metric   Both
Daily Weekly Monthly Yearly Custom
  High: Low: Average:
Temperature: 66.6 °F 60.4 °F 64.5 °F
Dew Point: 66.3 °F 60.2 °F 64.2 °F
Humidity: 99% 99% 99%
Wind Speed: 5.8mph 1mph 1.8mph
Wind Gust: 6mph - -
Wind- - SSE
Pressure: 30.12 in 30.10 in -
Precipitation: 0.00 in    
Historical Graphs
 
 
Tabular Data for August 11, 2022
Time Temperature Dew Point Pressure Wind Wind Speed Wind Gust Humidity Rainfall Rate (Hourly) solar Conditions
00:05 66.6 °F 66.3 °F 30.12 in SSW 1 mph 1 mph 99% 0.00 in 0 W/m2
00:10 66.6 °F 66.3 °F 30.12 in SSW 1 mph 1 mph 99% 0.00 in 0 W/m2
00:15 66.6 °F 66.3 °F 30.12 in SSW 1 mph 1 mph 99% 0.00 in 0 W/m2
00:20 66.6 °F 66.3 °F 30.12 in SSW 1 mph 1 mph 99% 0.00 in 0 W/m2
00:25 66.6 °F 66.3 °F 30.12 in SSW 1 mph 1 mph 99% 0.00 in 0 W/m2
00:30 66.6 °F 66.3 °F 30.12 in SSW 1 mph 1 mph 99% 0.00 in 0 W/m2
00:35 66.6 °F 66.3 °F 30.12 in SSW 1 mph 1 mph 99% 0.00 in 0 W/m2
00:40 66.6 °F 66.3 °F 30.12 in SSW 1 mph 1 mph 99% 0.00 in 0 W/m2
00:45 66.6 °F 66.3 °F 30.12 in SSW 1 mph 1 mph 99% 0.00 in 0 W/m2
00:50 66.6 °F 66.3 °F 30.12 in SSW 1 mph 1 mph 99% 0.00 in 0 W/m2
00:55 66.6 °F 66.3 °F 30.12 in SSW 1 mph 1 mph 99% 0.00 in 0 W/m2
01:00 66.6 °F 66.3 °F 30.12 in SSW 1 mph 1 mph 99% 0.00 in 0 W/m2
01:05 66.6 °F 66.3 °F 30.12 in SSW 1 mph 1 mph 99% 0.00 in 0 W/m2
01:10 66.6 °F 66.3 °F 30.12 in SSW 1 mph 1 mph 99% 0.00 in 0 W/m2
01:15 66.6 °F 66.3 °F 30.12 in SSW 1 mph 1 mph 99% 0.00 in 0 W/m2
01:25 66.6 °F 66.3 °F 30.12 in SSW 1 mph 1 mph 99% 0.00 in 0 W/m2
01:30 66.6 °F 66.3 °F 30.12 in SSW 1 mph 1 mph 99% 0.00 in 0 W/m2
01:35 66.6 °F 66.3 °F 30.12 in SSW 1 mph 1 mph 99% 0.00 in 0 W/m2
01:40 66.6 °F 66.3 °F 30.12 in SSW 1 mph 1 mph 99% 0.00 in 0 W/m2
01:45 66.6 °F 66.3 °F 30.12 in SSW 1 mph 1 mph 99% 0.00 in 0 W/m2
01:50 66.6 °F 66.3 °F 30.12 in SSW 1 mph 1 mph 99% 0.00 in 0 W/m2
01:55 66.6 °F 66.3 °F 30.12 in SSW 1 mph 1 mph 99% 0.00 in 0 W/m2
02:00 66.6 °F 66.3 °F 30.12 in SSW 1 mph 1 mph 99% 0.00 in 0 W/m2
02:05 66.6 °F 66.3 °F 30.12 in SSW 1 mph 1 mph 99% 0.00 in 0 W/m2
02:10 66.6 °F 66.3 °F 30.12 in SSW 1 mph 1 mph 99% 0.00 in 0 W/m2
02:15 66.6 °F 66.3 °F 30.12 in SSW 1 mph 1 mph 99% 0.00 in 0 W/m2
02:20 66.6 °F 66.3 °F 30.12 in SSW 1 mph 1 mph 99% 0.00 in 0 W/m2
02:25 66.6 °F 66.3 °F 30.12 in SSW 1 mph 1 mph 99% 0.00 in 0 W/m2
02:30 66.6 °F 66.3 °F 30.12 in SSW 1 mph 1 mph 99% 0.00 in 0 W/m2
02:35 66.6 °F 66.3 °F 30.12 in SSW 1 mph 1 mph 99% 0.00 in 0 W/m2
02:40 66.6 °F 66.3 °F 30.12 in SSW 1 mph 1 mph 99% 0.00 in 0 W/m2
02:45 66.6 °F 66.3 °F 30.12 in SSW 1 mph 1 mph 99% 0.00 in 0 W/m2
02:50 66.6 °F 66.3 °F 30.12 in SSW 1 mph 1 mph 99% 0.00 in 0 W/m2
02:55 66.6 °F 66.3 °F 30.12 in SSW 1 mph 1 mph 99% 0.00 in 0 W/m2
03:00 66.6 °F 66.3 °F 30.12 in SSW 1 mph 1 mph 99% 0.00 in 0 W/m2
03:05 66.6 °F 66.3 °F 30.12 in SSW 1 mph 1 mph 99% 0.00 in 0 W/m2
03:10 66.6 °F 66.3 °F 30.12 in SSW 1 mph 1 mph 99% 0.00 in 0 W/m2
03:15 66.6 °F 66.3 °F 30.12 in SSW 1 mph 1 mph 99% 0.00 in 0 W/m2
03:20 66.6 °F 66.3 °F 30.12 in SSW 1 mph 1 mph 99% 0.00 in 0 W/m2
03:25 66.6 °F 66.3 °F 30.12 in SSW 1 mph 1 mph 99% 0.00 in 0 W/m2
03:30 66.6 °F 66.3 °F 30.12 in SSW 1 mph 1 mph 99% 0.00 in 0 W/m2
03:35 66.6 °F 66.3 °F 30.12 in SSW 1 mph 1 mph 99% 0.00 in 0 W/m2
03:40 66.6 °F 66.3 °F 30.12 in SSW 1 mph 1 mph 99% 0.00 in 0 W/m2
03:45 66.6 °F 66.3 °F 30.12 in SSW 1 mph 1 mph 99% 0.00 in 0 W/m2
03:50 66.6 °F 66.3 °F 30.12 in SSW 1 mph 1 mph 99% 0.00 in 0 W/m2
03:55 66.6 °F 66.3 °F 30.12 in SSW 1 mph 1 mph 99% 0.00 in 0 W/m2
04:00 66.6 °F 66.3 °F 30.12 in SSW 1 mph 1 mph 99% 0.00 in 0 W/m2
04:05 66.6 °F 66.3 °F 30.12 in SSW 1 mph 1 mph 99% 0.00 in 0 W/m2
04:10 66.6 °F 66.3 °F 30.12 in SSW 1 mph 1 mph 99% 0.00 in 0 W/m2
04:15 66.6 °F 66.3 °F 30.12 in SSW 1 mph 1 mph 99% 0.00 in 0 W/m2
04:20 66.6 °F 66.3 °F 30.12 in SSW 1 mph 1 mph 99% 0.00 in 0 W/m2
04:30 66.6 °F 66.3 °F 30.12 in SSW 1 mph 1 mph 99% 0.00 in 0 W/m2
04:35 66.6 °F 66.3 °F 30.12 in SSW 1 mph 1 mph 99% 0.00 in 0 W/m2
04:40 66.6 °F 66.3 °F 30.12 in SSW 1 mph 1 mph 99% 0.00 in 0 W/m2
04:45 66.6 °F 66.3 °F 30.12 in SSW 1 mph 1 mph 99% 0.00 in 0 W/m2
04:52 63.8 °F 63.5 °F 30.12 in SSW 1.5 mph 1.1 mph 99% 0.00 in 0 W/m2
04:59 61 °F 60.7 °F 30.10 in SSW 2.5 mph 2 mph 99% 0.00 in 0 W/m2
05:04 61 °F 60.7 °F 30.10 in SE 3.1 mph 3 mph 99% 0.00 in 0 W/m2
05:09 61 °F 60.7 °F 30.10 in NE 3.5 mph 3 mph 99% 0.00 in 0 W/m2
05:14 61 °F 60.7 °F 30.10 in NE 3.8 mph 5 mph 99% 0.00 in 0 W/m2
05:19 61 °F 60.7 °F 30.10 in NE 2.8 mph 5 mph 99% 0.00 in 0 W/m2
05:24 61 °F 60.7 °F 30.10 in NE 4.2 mph 3 mph 99% 0.00 in 0 W/m2
05:29 61 °F 60.7 °F 30.10 in NE 2.9 mph 5 mph 99% 0.00 in 1 W/m2
05:33 61 °F 60.7 °F 30.10 in NE 3.5 mph 4 mph 99% 0.00 in 2 W/m2
05:39 61 °F 60.7 °F 30.11 in NE 4.2 mph 5 mph 99% 0.00 in 4 W/m2
05:44 61 °F 60.7 °F 30.11 in ENE 4.4 mph 5 mph 99% 0.00 in 5 W/m2
05:49 61 °F 60.7 °F 30.11 in East 5.8 mph 3.6 mph 99% 0.00 in 7 W/m2
05:54 60.7 °F 60.4 °F 30.11 in East 4.5 mph 6 mph 99% 0.00 in 9 W/m2
05:59 60.6 °F 60.3 °F 30.11 in ESE 3.7 mph 5 mph 99% 0.00 in 14 W/m2
06:04 60.5 °F 60.3 °F 30.11 in ESE 3.2 mph 5 mph 99% 0.00 in 18 W/m2
06:09 60.4 °F 60.2 °F 30.11 in ESE 2.5 mph 3 mph 99% 0.00 in 25 W/m2
06:14 60.4 °F 60.2 °F 30.11 in ESE 2.5 mph 3 mph 99% 0.00 in 28 W/m2
06:19 60.4 °F 60.2 °F 30.11 in East 3.3 mph 4 mph 99% 0.00 in 31 W/m2
06:24 60.6 °F 60.3 °F 30.11 in East 3.1 mph 4 mph 99% 0.00 in 33 W/m2
06:28 60.5 °F 60.2 °F 30.11 in ENE 1.4 mph 3 mph 99% 0.00 in 36 W/m2
06:34 60.6 °F 60.3 °F 30.11 in NE 2.6 mph 2.2 mph 99% 0.00 in 45 W/m2
06:39 60.5 °F 60.3 °F 30.12 in ENE 2.6 mph 3 mph 99% 0.00 in 55 W/m2
06:44 60.5 °F 60.3 °F 30.12 in ENE 3 mph 3 mph 99% 0.00 in 54 W/m2
06:49 60.6 °F 60.3 °F 30.12 in NE 2.2 mph 2.2 mph 99% 0.00 in 55 W/m2
06:54 60.5 °F 60.2 °F 30.12 in ENE 2.9 mph 4 mph 99% 0.00 in 58 W/m2
06:58 60.6 °F 60.3 °F 30.12 in NE 1.8 mph 3 mph 99% 0.00 in 63 W/m2
07:04 60.7 °F 60.4 °F 30.12 in NNE 2.2 mph 3 mph 99% 0.00 in 68 W/m2
07:09 60.9 °F 60.6 °F 30.12 in NE 3 mph 3 mph 99% 0.00 in 76 W/m2
07:14 61.1 °F 60.8 °F 30.12 in NE 2.7 mph 3 mph 99% 0.00 in 75 W/m2
07:19 61.2 °F 60.9 °F 30.12 in NE 2.1 mph 3 mph 99% 0.00 in 82 W/m2
07:24 61.2 °F 61 °F 30.12 in NNE 2.7 mph 4 mph 99% 0.00 in 153 W/m2
07:29 61.4 °F 61.2 °F 30.12 in NNE 1.8 mph 3 mph 99% 0.00 in 157 W/m2
07:31 61.6 °F 61.3 °F 30.12 in NNE 3.5 mph 2.2 mph 99% 0.00 in 152 W/m2
Knjazevac, Serbia
Compliments of Weather Underground - 2 mb